createdAt,value
2018-03-30T00:00:55.157Z,5.80
2018-03-30T00:03:23.514Z,5.40
2018-03-30T00:05:51.141Z,5.65
2018-03-30T00:08:19.782Z,5.70
2018-03-30T00:10:53.196Z,5.65
2018-03-30T00:13:20.888Z,6.70
2018-03-30T00:15:49.603Z,6.35
2018-03-30T00:18:17.196Z,6.00
2018-03-30T00:20:44.799Z,7.57
2018-03-30T00:23:12.437Z,5.95
2018-03-30T00:25:40.845Z,6.60
2018-03-30T00:28:09.266Z,6.87
2018-03-30T00:30:36.917Z,6.85
2018-03-30T00:33:05.969Z,6.70
2018-03-30T00:35:33.582Z,6.97
2018-03-30T00:38:01.954Z,7.00
2018-03-30T00:40:29.641Z,7.20
2018-03-30T00:42:57.278Z,7.07
2018-03-30T00:45:24.900Z,6.55
2018-03-30T00:47:52.571Z,7.15
2018-03-30T00:50:20.190Z,7.15
2018-03-30T00:52:47.830Z,7.30
2018-03-30T00:55:15.784Z,7.82
2018-03-30T00:57:43.410Z,7.62
2018-03-30T01:00:11.812Z,7.93
2018-03-30T01:02:39.600Z,7.80
2018-03-30T01:05:07.188Z,8.32
2018-03-30T01:07:34.842Z,7.65
2018-03-30T01:10:02.495Z,7.65
2018-03-30T01:12:30.131Z,7.68
2018-03-30T01:14:58.550Z,7.80
2018-03-30T01:17:26.181Z,7.53
2018-03-30T01:19:53.796Z,8.30
2018-03-30T01:22:21.456Z,7.93
2018-03-30T01:24:49.066Z,7.75
2018-03-30T01:27:17.449Z,7.25
2018-03-30T01:29:45.085Z,8.05
2018-03-30T01:32:12.698Z,8.15
2018-03-30T01:34:40.338Z,8.10
2018-03-30T01:37:08.589Z,7.70
2018-03-30T01:39:36.249Z,8.45
2018-03-30T01:42:03.885Z,8.10
2018-03-30T01:44:31.542Z,8.47
2018-03-30T01:46:59.185Z,8.60
2018-03-30T01:49:27.620Z,8.13
2018-03-30T01:51:55.240Z,8.02
2018-03-30T01:54:23.724Z,8.38
2018-03-30T01:56:51.335Z,8.43
2018-03-30T01:59:18.964Z,8.65
2018-03-30T02:01:47.369Z,8.43
2018-03-30T02:04:14.960Z,8.63
2018-03-30T02:06:42.568Z,8.40
2018-03-30T02:09:10.216Z,8.85
2018-03-30T02:11:37.892Z,8.55
2018-03-30T02:14:05.980Z,8.02
2018-03-30T02:16:33.723Z,8.75
2018-03-30T02:19:01.315Z,8.65
2018-03-30T02:21:28.949Z,9.02
2018-03-30T02:23:56.587Z,9.07
2018-03-30T02:26:24.227Z,8.67
2018-03-30T02:28:52.588Z,9.00
2018-03-30T02:31:20.934Z,8.45
2018-03-30T02:33:48.565Z,8.60
2018-03-30T02:36:16.995Z,9.38
2018-03-30T02:38:44.952Z,10.00
2018-03-30T02:41:12.626Z,8.85
2018-03-30T02:43:40.249Z,9.05
2018-03-30T02:46:08.728Z,8.65
2018-03-30T02:48:37.115Z,8.45
2018-03-30T02:51:05.482Z,8.80
2018-03-30T02:53:33.422Z,8.73
2018-03-30T02:56:01.063Z,9.27
2018-03-30T02:58:28.718Z,8.02
2018-03-30T03:00:57.115Z,8.77
2018-03-30T03:03:24.739Z,9.18
2018-03-30T03:05:52.483Z,9.05
2018-03-30T03:08:20.161Z,8.00
2018-03-30T03:10:47.759Z,8.48
2018-03-30T03:13:16.173Z,8.95
2018-03-30T03:15:43.923Z,8.07
2018-03-30T03:18:12.305Z,8.77
2018-03-30T03:20:40.691Z,7.93
2018-03-30T03:23:09.091Z,8.37
2018-03-30T03:25:36.726Z,8.75
2018-03-30T03:28:05.144Z,8.80
2018-03-30T03:30:33.133Z,8.13
2018-03-30T03:33:00.783Z,8.82
2018-03-30T03:35:28.391Z,8.27
2018-03-30T03:37:55.990Z,8.52
2018-03-30T03:40:24.393Z,8.98
2018-03-30T03:42:52.056Z,8.95
2018-03-30T03:45:19.687Z,8.52
2018-03-30T03:47:47.956Z,8.18
2018-03-30T03:50:17.206Z,8.30
2018-03-30T03:52:44.910Z,9.10
2018-03-30T03:55:12.498Z,8.65
2018-03-30T03:57:40.143Z,7.93
2018-03-30T04:00:07.738Z,8.77
2018-03-30T04:02:35.932Z,7.85
2018-03-30T04:05:04.305Z,7.65
2018-03-30T04:07:32.684Z,8.43
2018-03-30T04:10:00.325Z,7.70
2018-03-30T04:12:27.967Z,7.75
2018-03-30T04:14:55.595Z,8.02
2018-03-30T04:17:24.012Z,7.10
2018-03-30T04:19:51.611Z,7.70
2018-03-30T04:22:19.208Z,7.10
2018-03-30T04:24:47.609Z,7.45
2018-03-30T04:27:30.892Z,6.80
2018-03-30T04:29:58.522Z,8.00
2018-03-30T04:32:26.384Z,7.30
2018-03-30T04:34:53.987Z,7.37
2018-03-30T04:37:21.593Z,7.55
2018-03-30T04:39:49.988Z,7.35
2018-03-30T04:42:17.625Z,6.70
2018-03-30T04:44:45.243Z,7.10
2018-03-30T04:47:12.910Z,6.62
2018-03-30T04:49:40.547Z,7.07
2018-03-30T04:52:08.186Z,6.40
2018-03-30T04:54:36.062Z,6.22
2018-03-30T04:57:03.691Z,6.00
2018-03-30T04:59:31.643Z,6.35
2018-03-30T05:01:59.762Z,6.05
2018-03-30T05:04:27.385Z,5.80
2018-03-30T05:06:55.031Z,5.70
2018-03-30T05:09:23.411Z,5.80
2018-03-30T05:11:51.834Z,5.82
2018-03-30T05:14:19.441Z,5.82
2018-03-30T05:16:47.335Z,5.78
2018-03-30T05:19:15.720Z,5.40
2018-03-30T05:21:44.144Z,6.05
2018-03-30T05:24:11.813Z,5.40
2018-03-30T05:26:39.475Z,5.32
2018-03-30T05:29:07.123Z,5.97
2018-03-30T05:31:34.766Z,6.00
2018-03-30T05:34:03.139Z,5.93
2018-03-30T05:36:30.779Z,5.78
2018-03-30T05:38:58.436Z,5.47
2018-03-30T05:41:26.079Z,5.75
2018-03-30T05:43:53.724Z,5.55
2018-03-30T05:46:22.078Z,5.67
2018-03-30T05:48:49.800Z,5.50
2018-03-30T05:51:17.410Z,5.80
2018-03-30T05:53:45.684Z,5.30
2018-03-30T05:56:13.392Z,5.70
2018-03-30T05:58:41.743Z,5.37
2018-03-30T06:01:09.364Z,5.70
2018-03-30T06:03:37.472Z,5.32
2018-03-30T06:06:05.110Z,4.75
2018-03-30T06:08:32.721Z,5.45
2018-03-30T06:11:00.380Z,5.20
2018-03-30T06:13:29.358Z,5.07
2018-03-30T06:15:56.965Z,4.97
2018-03-30T06:18:25.392Z,5.00
2018-03-30T06:20:53.018Z,5.30
2018-03-30T06:23:21.386Z,5.35
2018-03-30T06:25:49.061Z,5.28
2018-03-30T06:28:16.711Z,4.95
2018-03-30T06:30:44.367Z,4.65
2018-03-30T06:33:11.978Z,5.30
2018-03-30T06:35:40.350Z,4.80
2018-03-30T06:38:08.796Z,4.87
2018-03-30T06:40:36.436Z,4.70
2018-03-30T06:43:04.481Z,5.30
2018-03-30T06:45:32.155Z,4.80
2018-03-30T06:48:00.576Z,4.85
2018-03-30T06:50:28.222Z,5.78
2018-03-30T06:52:56.118Z,4.60
2018-03-30T06:55:23.760Z,4.67
2018-03-30T06:57:51.405Z,4.80
2018-03-30T07:00:19.806Z,5.15
2018-03-30T07:02:47.464Z,5.00
2018-03-30T07:05:15.848Z,4.85
2018-03-30T07:07:43.606Z,4.78
2018-03-30T07:10:12.012Z,4.62
2018-03-30T07:12:39.667Z,4.50
2018-03-30T07:15:08.223Z,4.70
2018-03-30T07:17:36.047Z,4.10
2018-03-30T07:20:03.694Z,4.18
2018-03-30T07:22:31.750Z,4.28
2018-03-30T07:25:00.310Z,4.20
2018-03-30T07:27:27.935Z,3.58
2018-03-30T07:29:55.618Z,4.62
2018-03-30T07:32:23.283Z,3.90
2018-03-30T07:34:50.885Z,4.32
2018-03-30T07:37:20.038Z,4.07
2018-03-30T07:39:47.724Z,3.58
2018-03-30T07:42:15.352Z,4.10
2018-03-30T07:44:43.733Z,3.65
2018-03-30T07:47:11.386Z,3.35
2018-03-30T07:49:39.774Z,3.53
2018-03-30T07:52:07.404Z,3.53
2018-03-30T07:54:35.349Z,3.62
2018-03-30T07:57:02.963Z,3.35
2018-03-30T07:59:32.008Z,3.58
2018-03-30T08:01:59.644Z,3.50
2018-03-30T08:04:28.102Z,3.12
2018-03-30T08:06:55.732Z,3.33
2018-03-30T08:09:24.292Z,3.00
2018-03-30T08:11:51.949Z,2.83
2018-03-30T08:14:19.584Z,2.90
2018-03-30T08:16:47.330Z,2.85
2018-03-30T08:19:15.786Z,3.28
2018-03-30T08:21:43.459Z,3.13
2018-03-30T08:24:11.109Z,2.87
2018-03-30T08:26:39.690Z,2.80
2018-03-30T08:29:08.070Z,2.40
2018-03-30T08:31:36.479Z,2.80
2018-03-30T08:34:04.144Z,3.10
2018-03-30T08:36:31.769Z,2.55
2018-03-30T08:38:59.420Z,2.80
2018-03-30T08:41:27.049Z,2.90
2018-03-30T08:43:54.672Z,2.90
2018-03-30T08:46:22.342Z,2.92
2018-03-30T08:48:50.782Z,2.45
2018-03-30T08:51:18.436Z,2.75
2018-03-30T08:53:46.128Z,2.80
2018-03-30T08:56:13.735Z,2.80
2018-03-30T08:58:42.526Z,2.78
2018-03-30T09:01:10.911Z,3.25
2018-03-30T09:03:38.529Z,3.03
2018-03-30T09:06:06.177Z,2.77
2018-03-30T09:08:33.834Z,3.20
2018-03-30T09:11:02.272Z,2.92
2018-03-30T09:13:29.863Z,3.20
2018-03-30T09:15:57.482Z,3.12
2018-03-30T09:18:25.147Z,3.10
2018-03-30T09:20:52.945Z,3.05
2018-03-30T09:23:20.609Z,3.03
2018-03-30T09:25:48.265Z,2.90
2018-03-30T09:28:15.902Z,2.90
2018-03-30T09:30:43.551Z,2.90
2018-03-30T09:33:17.770Z,2.90
2018-03-30T09:35:46.172Z,2.78
2018-03-30T09:38:13.845Z,2.92
2018-03-30T09:40:41.491Z,2.70
2018-03-30T09:43:09.183Z,2.95
2018-03-30T09:45:36.795Z,2.60
2018-03-30T09:48:04.656Z,2.87
2018-03-30T09:50:32.404Z,2.50
2018-03-30T09:53:00.046Z,2.80
2018-03-30T09:55:27.726Z,2.65
2018-03-30T09:57:55.401Z,2.75
2018-03-30T10:00:23.053Z,2.53
2018-03-30T10:02:53.699Z,2.65
2018-03-30T10:05:21.351Z,2.77
2018-03-30T10:07:49.014Z,2.72
2018-03-30T10:10:16.683Z,2.78
2018-03-30T10:12:45.075Z,2.67
2018-03-30T10:15:12.916Z,2.50
2018-03-30T10:17:41.427Z,2.60
2018-03-30T10:20:09.092Z,2.72
2018-03-30T10:22:38.025Z,2.70
2018-03-30T10:25:06.453Z,2.37
2018-03-30T10:27:34.857Z,2.73
2018-03-30T10:30:02.522Z,2.53
2018-03-30T10:32:30.123Z,2.63
2018-03-30T10:34:57.767Z,2.78
2018-03-30T10:37:25.377Z,2.80
2018-03-30T10:39:53.044Z,2.80
2018-03-30T10:42:20.671Z,2.70
2018-03-30T10:44:48.308Z,2.70
2018-03-30T10:47:15.948Z,2.70
2018-03-30T10:49:44.431Z,2.72
2018-03-30T10:52:13.280Z,2.65
2018-03-30T10:54:40.896Z,2.70
2018-03-30T10:57:09.311Z,2.90
2018-03-30T10:59:37.053Z,2.70
2018-03-30T11:02:05.576Z,2.78
2018-03-30T11:04:33.185Z,2.63
2018-03-30T11:07:01.081Z,2.50
2018-03-30T11:09:28.815Z,2.60
2018-03-30T11:11:57.131Z,2.73
2018-03-30T11:14:25.512Z,2.70
2018-03-30T11:16:53.178Z,2.00
2018-03-30T11:19:21.606Z,2.60
2018-03-30T11:21:49.250Z,2.55
2018-03-30T11:24:17.073Z,2.67
2018-03-30T11:26:44.752Z,1.87
2018-03-30T11:29:12.422Z,2.40
2018-03-30T11:31:40.106Z,2.25
2018-03-30T11:34:11.316Z,2.40
2018-03-30T11:36:38.931Z,2.30
2018-03-30T11:39:07.342Z,2.30
2018-03-30T11:41:35.000Z,2.30
2018-03-30T11:44:02.654Z,2.30
2018-03-30T11:46:30.316Z,2.50
2018-03-30T11:48:57.961Z,2.37
2018-03-30T11:51:26.917Z,2.78
2018-03-30T11:53:54.549Z,2.60
2018-03-30T11:56:22.169Z,2.37
2018-03-30T11:58:49.804Z,2.37
2018-03-30T12:01:17.426Z,2.80
2018-03-30T12:03:45.826Z,3.40
2018-03-30T12:06:13.460Z,2.87
2018-03-30T12:08:41.089Z,2.83
2018-03-30T12:11:08.679Z,2.80
2018-03-30T12:13:36.307Z,2.93
2018-03-30T12:16:03.923Z,2.87
2018-03-30T12:18:31.524Z,2.87
2018-03-30T12:20:59.152Z,2.77
2018-03-30T12:23:26.787Z,2.87
2018-03-30T12:25:54.440Z,2.97
2018-03-30T12:28:22.084Z,2.93
2018-03-30T12:30:50.448Z,2.80
2018-03-30T12:33:18.064Z,2.67
2018-03-30T12:35:45.685Z,2.80
2018-03-30T12:38:14.101Z,2.85
2018-03-30T12:40:41.713Z,2.80
2018-03-30T12:43:09.325Z,2.87
2018-03-30T12:45:36.963Z,3.30
2018-03-30T12:48:04.606Z,3.20
2018-03-30T12:50:32.258Z,3.10
2018-03-30T12:52:59.890Z,3.57
2018-03-30T12:55:27.660Z,3.00
2018-03-30T12:57:56.018Z,2.67
2018-03-30T13:00:24.406Z,2.72
2018-03-30T13:02:52.823Z,2.72
2018-03-30T13:05:20.439Z,2.83
2018-03-30T13:07:48.093Z,3.00
2018-03-30T13:10:15.780Z,2.70
2018-03-30T13:12:44.145Z,3.30
2018-03-30T13:15:11.782Z,2.73
2018-03-30T13:17:39.436Z,2.60
2018-03-30T13:20:07.029Z,2.42
2018-03-30T13:22:34.684Z,2.53
2018-03-30T13:25:02.334Z,2.60
2018-03-30T13:27:29.983Z,2.70
2018-03-30T13:29:58.364Z,2.65
2018-03-30T13:32:26.758Z,2.33
2018-03-30T13:34:54.378Z,2.40
2018-03-30T13:37:21.998Z,2.28
2018-03-30T13:39:49.656Z,1.92
2018-03-30T13:42:17.256Z,2.20
2018-03-30T13:44:45.682Z,2.03
2018-03-30T13:47:14.169Z,2.25
2018-03-30T13:49:41.844Z,2.10
2018-03-30T13:52:18.090Z,1.80
2018-03-30T13:54:47.361Z,1.90
2018-03-30T13:57:18.636Z,2.10
2018-03-30T14:02:57.451Z,2.08
2018-03-30T14:05:31.742Z,1.90
2018-03-30T14:08:12.964Z,1.90
2018-03-30T14:10:48.357Z,2.15
2018-03-30T14:13:15.980Z,2.03
2018-03-30T14:15:44.457Z,2.40
2018-03-30T14:18:16.562Z,2.40
2018-03-30T14:20:55.805Z,2.10
2018-03-30T14:23:23.488Z,2.28
2018-03-30T14:26:07.818Z,2.60
2018-03-30T14:28:40.191Z,2.35
2018-03-30T14:31:14.353Z,2.50
2018-03-30T14:33:42.819Z,2.50
2018-03-30T14:36:10.462Z,2.70
2018-03-30T14:38:58.887Z,2.50
2018-03-30T14:41:26.522Z,2.90
2018-03-30T14:43:54.143Z,2.60
2018-03-30T14:46:51.395Z,2.75
2018-03-30T14:49:19.090Z,2.85
2018-03-30T14:51:55.324Z,2.70
2018-03-30T14:54:36.508Z,2.83
2018-03-30T14:57:06.046Z,2.53
2018-03-30T14:59:39.202Z,2.70
2018-03-30T15:02:08.251Z,2.83
2018-03-30T15:04:42.512Z,2.50
2018-03-30T15:10:16.844Z,2.37
2018-03-30T15:12:47.168Z,2.53
2018-03-30T15:15:17.600Z,2.87
2018-03-30T15:17:52.863Z,2.90
2018-03-30T15:20:22.780Z,3.00
2018-03-30T15:22:51.955Z,7.40
2018-03-30T15:25:32.284Z,5.00
2018-03-30T15:28:00.893Z,3.37
2018-03-30T15:30:45.109Z,3.40
2018-03-30T15:36:35.936Z,3.12
2018-03-30T15:39:03.536Z,3.40
2018-03-30T15:41:33.400Z,3.20
2018-03-30T15:44:01.045Z,3.12
2018-03-30T15:46:36.219Z,3.20
2018-03-30T15:49:03.865Z,3.78
2018-03-30T15:51:38.117Z,2.95
2018-03-30T15:54:05.286Z,3.10
2018-03-30T15:56:34.636Z,2.90
2018-03-30T15:59:02.276Z,2.70
2018-03-30T16:01:30.679Z,2.85
2018-03-30T16:03:58.330Z,2.58
2018-03-30T16:06:25.983Z,4.00
2018-03-30T16:08:53.847Z,3.10
2018-03-30T16:11:24.197Z,3.10
2018-03-30T16:13:51.824Z,3.28
2018-03-30T16:16:19.468Z,2.80
2018-03-30T16:18:56.439Z,2.85
2018-03-30T16:21:24.367Z,3.25
2018-03-30T16:23:52.309Z,3.30
2018-03-30T16:26:19.457Z,3.40
2018-03-30T16:28:46.602Z,4.37
2018-03-30T16:31:13.729Z,3.85
2018-03-30T16:33:40.905Z,3.20
2018-03-30T16:36:08.090Z,2.97
2018-03-30T16:38:35.261Z,3.65
2018-03-30T16:41:03.195Z,4.50
2018-03-30T16:43:30.331Z,3.87
2018-03-30T16:45:57.545Z,4.07
2018-03-30T16:48:25.524Z,4.30
2018-03-30T16:50:53.534Z,3.62
2018-03-30T16:53:21.852Z,3.17
2018-03-30T16:55:49.014Z,3.03
2018-03-30T16:58:16.209Z,3.37
2018-03-30T17:00:44.118Z,4.50
2018-03-30T17:03:11.247Z,4.43
2018-03-30T17:05:38.421Z,3.70
2018-03-30T17:08:05.559Z,3.72
2018-03-30T17:10:32.709Z,3.70
2018-03-30T17:13:01.818Z,3.45
2018-03-30T17:15:28.935Z,3.33
2018-03-30T17:17:56.126Z,3.20
2018-03-30T17:20:23.330Z,3.23
2018-03-30T17:22:50.481Z,3.00
2018-03-30T17:25:17.591Z,3.10
2018-03-30T17:27:44.753Z,4.22
2018-03-30T17:30:12.004Z,8.13
2018-03-30T17:32:39.904Z,7.28
2018-03-30T17:35:07.062Z,6.65
2018-03-30T17:37:34.204Z,6.10
2018-03-30T17:40:01.358Z,5.30
2018-03-30T17:42:28.509Z,4.75
2018-03-30T17:44:55.629Z,4.50
2018-03-30T17:47:22.768Z,4.12
2018-03-30T17:49:49.882Z,4.35
2018-03-30T17:52:17.371Z,5.25
2018-03-30T17:54:44.481Z,8.20
2018-03-30T17:57:11.649Z,7.85
2018-03-30T17:59:38.795Z,6.80
2018-03-30T18:02:05.948Z,5.00
2018-03-30T18:04:33.094Z,4.60
2018-03-30T18:07:01.047Z,4.62
2018-03-30T18:09:29.024Z,4.37
2018-03-30T18:11:56.935Z,4.28
2018-03-30T18:14:24.072Z,5.70
2018-03-30T18:16:51.986Z,6.30
2018-03-30T18:19:19.182Z,5.90
2018-03-30T18:21:46.320Z,4.40
2018-03-30T18:24:13.456Z,6.10
2018-03-30T18:26:40.630Z,6.40
2018-03-30T18:29:07.776Z,5.07
2018-03-30T18:31:35.025Z,4.93
2018-03-30T18:34:02.176Z,5.57
2018-03-30T18:36:29.653Z,5.80
2018-03-30T18:38:56.782Z,5.60
2018-03-30T18:41:23.932Z,4.90
2018-03-30T18:43:51.410Z,5.45
2018-03-30T18:46:18.518Z,5.00
2018-03-30T18:48:46.386Z,6.07
2018-03-30T18:51:14.325Z,5.85
2018-03-30T18:53:41.526Z,6.43
2018-03-30T18:56:09.411Z,6.20
2018-03-30T18:58:36.554Z,6.05
2018-03-30T19:01:03.685Z,5.60
2018-03-30T19:03:30.875Z,6.35
2018-03-30T19:05:58.804Z,6.05
2018-03-30T19:08:25.917Z,6.30
2018-03-30T19:10:53.083Z,7.00
2018-03-30T19:13:20.294Z,7.97
2018-03-30T19:15:47.437Z,6.25
2018-03-30T19:18:14.568Z,7.50
2018-03-30T19:20:42.092Z,5.97
2018-03-30T19:23:10.002Z,5.78
2018-03-30T19:25:37.119Z,5.87
2018-03-30T19:28:05.037Z,5.20
2018-03-30T19:30:32.198Z,4.78
2018-03-30T19:32:59.381Z,4.60
2018-03-30T19:35:26.513Z,5.12
2018-03-30T19:37:53.862Z,4.78
2018-03-30T19:40:21.025Z,4.85
2018-03-30T19:42:48.159Z,5.55
2018-03-30T19:45:15.274Z,5.32
2018-03-30T19:47:42.597Z,4.95
2018-03-30T19:50:09.736Z,4.90
2018-03-30T19:52:36.937Z,5.15
2018-03-30T19:55:04.114Z,4.90
2018-03-30T19:57:32.047Z,5.00
2018-03-30T19:59:59.264Z,5.00
2018-03-30T20:02:26.387Z,4.85
2018-03-30T20:04:54.313Z,5.05
2018-03-30T20:07:21.424Z,5.10
2018-03-30T20:09:48.633Z,4.93
2018-03-30T20:12:15.741Z,4.72
2018-03-30T20:14:43.705Z,4.62
2018-03-30T20:17:11.636Z,4.80
2018-03-30T20:19:38.773Z,5.37
2018-03-30T20:22:06.774Z,4.62
2018-03-30T20:24:33.924Z,5.10
2018-03-30T20:27:01.079Z,5.32
2018-03-30T20:29:28.200Z,5.35
2018-03-30T20:31:55.349Z,5.20
2018-03-30T20:34:23.091Z,5.30
2018-03-30T20:36:50.401Z,4.83
2018-03-30T20:39:17.523Z,4.95
2018-03-30T20:41:45.443Z,5.32
2018-03-30T20:44:12.771Z,5.78
2018-03-30T20:46:39.920Z,5.32
2018-03-30T20:49:07.056Z,5.37
2018-03-30T20:51:35.089Z,5.85
2018-03-30T20:54:02.327Z,5.35
2018-03-30T20:56:29.594Z,5.90
2018-03-30T20:58:56.754Z,6.53
2018-03-30T21:01:23.946Z,6.63
2018-03-30T21:03:51.092Z,6.15
2018-03-30T21:06:18.505Z,6.50
2018-03-30T21:08:45.623Z,5.68
2018-03-30T21:11:12.722Z,6.32
2018-03-30T21:13:39.876Z,5.80
2018-03-30T21:16:07.051Z,5.90
2018-03-30T21:18:34.231Z,6.55
2018-03-30T21:21:01.380Z,6.05
2018-03-30T21:23:28.531Z,5.95
2018-03-30T21:25:55.657Z,5.45
2018-03-30T21:28:22.817Z,5.25
2018-03-30T21:30:49.989Z,6.00
2018-03-30T21:33:17.092Z,5.40
2018-03-30T21:35:45.030Z,5.47
2018-03-30T21:38:12.158Z,5.43
2018-03-30T21:40:39.309Z,5.30
2018-03-30T21:43:06.440Z,5.40
2018-03-30T21:45:33.585Z,5.65
2018-03-30T21:48:01.470Z,4.90
2018-03-30T21:50:28.574Z,5.93
2018-03-30T21:52:55.718Z,6.00
2018-03-30T21:55:22.816Z,5.60
2018-03-30T21:57:49.999Z,5.90
2018-03-30T22:00:17.160Z,6.00
2018-03-30T22:02:44.286Z,5.70
2018-03-30T22:05:12.210Z,6.37
2018-03-30T22:07:39.379Z,5.78
2018-03-30T22:10:06.492Z,6.10
2018-03-30T22:12:33.630Z,6.53
2018-03-30T22:15:01.504Z,5.25
2018-03-30T22:17:28.659Z,5.50
2018-03-30T22:19:55.794Z,5.20
2018-03-30T22:22:22.946Z,5.20
2018-03-30T22:24:50.117Z,4.87
2018-03-30T22:27:17.987Z,5.03
2018-03-30T22:29:45.903Z,5.07
2018-03-30T22:32:13.050Z,5.47
2018-03-30T22:34:40.205Z,5.30
2018-03-30T22:37:07.361Z,5.47
2018-03-30T22:39:34.805Z,5.00
2018-03-30T22:42:01.926Z,4.90
2018-03-30T22:44:29.097Z,5.07
2018-03-30T22:46:56.281Z,5.65
2018-03-30T22:49:23.448Z,5.20
2018-03-30T22:51:50.631Z,5.70
2018-03-30T22:54:18.539Z,4.70
2018-03-30T22:56:46.474Z,4.90
2018-03-30T22:59:13.943Z,5.28
2018-03-30T23:01:41.111Z,4.78
2018-03-30T23:04:08.287Z,4.72
2018-03-30T23:06:36.289Z,5.32
2018-03-30T23:09:03.540Z,5.62
2018-03-30T23:11:30.797Z,4.70
2018-03-30T23:13:57.971Z,5.00
2018-03-30T23:16:25.089Z,4.80
2018-03-30T23:18:52.998Z,5.28
2018-03-30T23:21:20.148Z,5.40
2018-03-30T23:23:47.307Z,5.18
2018-03-30T23:26:14.465Z,5.15
2018-03-30T23:28:41.619Z,5.15
2018-03-30T23:31:08.720Z,5.05
2018-03-30T23:33:36.614Z,5.25
2018-03-30T23:36:03.754Z,4.63
2018-03-30T23:38:31.658Z,4.97
2018-03-30T23:40:58.818Z,4.70
2018-03-30T23:43:25.981Z,5.00
2018-03-30T23:45:53.108Z,5.10
2018-03-30T23:48:21.013Z,5.47
2018-03-30T23:50:48.169Z,4.75
2018-03-30T23:53:15.293Z,4.20
2018-03-30T23:55:42.502Z,4.82
2018-03-30T23:58:09.642Z,4.80
